createdAt,value
2023-03-26T00:01:15.524Z,0.82
2023-03-26T00:03:47.151Z,0.60
2023-03-26T00:06:16.095Z,0.47
2023-03-26T00:08:45.176Z,0.68
2023-03-26T00:11:14.923Z,0.60
2023-03-26T00:13:43.729Z,0.50
2023-03-26T00:16:19.719Z,0.60
2023-03-26T00:18:48.895Z,0.50
2023-03-26T00:21:18.702Z,0.55
2023-03-26T00:23:46.098Z,0.50
2023-03-26T00:26:12.875Z,1.02
2023-03-26T00:28:41.496Z,0.95
2023-03-26T00:31:13.963Z,0.80
2023-03-26T00:33:41.980Z,0.60
2023-03-26T00:36:15.153Z,0.80
2023-03-26T00:38:43.301Z,0.63
2023-03-26T00:41:22.711Z,0.50
2023-03-26T00:43:51.903Z,0.60
2023-03-26T00:46:19.010Z,0.60
2023-03-26T00:48:46.560Z,0.63
2023-03-26T00:51:15.832Z,0.60
2023-03-26T00:53:44.981Z,0.40
2023-03-26T00:56:13.043Z,0.88
2023-03-26T00:58:40.625Z,0.60
2023-03-26T01:01:13.762Z,0.35
2023-03-26T01:03:52.987Z,0.80
2023-03-26T01:06:27.970Z,0.70
2023-03-26T01:09:00.313Z,0.43
2023-03-26T01:11:32.003Z,0.77
2023-03-26T01:14:06.320Z,0.60
2023-03-26T01:16:41.617Z,0.55
2023-03-26T01:19:16.435Z,0.60
2023-03-26T01:21:43.258Z,0.70
2023-03-26T01:24:10.519Z,0.60
2023-03-26T01:26:52.826Z,0.55
2023-03-26T01:29:29.781Z,0.85
2023-03-26T01:32:15.108Z,0.63
2023-03-26T01:35:19.457Z,1.08
2023-03-26T01:37:52.644Z,0.68
2023-03-26T01:40:57.877Z,0.47
2023-03-26T01:43:39.593Z,0.40
2023-03-26T01:46:09.407Z,0.55
2023-03-26T01:48:39.458Z,0.60
2023-03-26T01:51:07.312Z,0.50
2023-03-26T01:53:37.532Z,0.40
2023-03-26T01:56:22.548Z,0.40
2023-03-26T01:59:08.306Z,0.95
2023-03-26T02:02:04.894Z,0.70
2023-03-26T02:04:53.081Z,0.60
2023-03-26T02:07:44.778Z,0.40
2023-03-26T02:10:21.048Z,0.70
2023-03-26T02:12:47.828Z,0.80
2023-03-26T02:15:14.479Z,0.60
2023-03-26T02:17:41.299Z,0.60
2023-03-26T02:20:10.583Z,0.70
2023-03-26T02:22:41.727Z,0.47
2023-03-26T02:25:15.502Z,0.47
2023-03-26T02:27:43.235Z,0.93
2023-03-26T02:30:16.186Z,0.55
2023-03-26T02:32:45.558Z,0.60
2023-03-26T02:35:13.401Z,0.47
2023-03-26T02:37:42.134Z,0.63
2023-03-26T02:40:14.990Z,0.93
2023-03-26T02:42:44.475Z,0.52
2023-03-26T02:45:11.382Z,0.30
2023-03-26T02:48:00.880Z,0.40
2023-03-26T02:50:54.136Z,0.40
2023-03-26T02:53:37.640Z,0.43
2023-03-26T02:56:25.407Z,0.50
2023-03-26T02:59:12.262Z,0.52
2023-03-26T03:01:43.073Z,0.30
2023-03-26T03:04:12.990Z,0.50
2023-03-26T03:06:40.580Z,0.50
2023-03-26T03:09:11.479Z,0.40
2023-03-26T03:11:40.738Z,0.50
2023-03-26T03:14:08.314Z,0.60
2023-03-26T03:16:35.482Z,0.30
2023-03-26T03:19:06.508Z,0.40
2023-03-26T03:21:37.918Z,0.68
2023-03-26T03:24:05.565Z,0.60
2023-03-26T03:26:41.252Z,0.68
2023-03-26T03:29:19.468Z,0.50
2023-03-26T03:31:46.447Z,0.40
2023-03-26T03:34:27.614Z,0.60
2023-03-26T03:36:54.280Z,0.60
2023-03-26T03:39:31.393Z,0.60
2023-03-26T03:41:58.157Z,0.60
2023-03-26T03:44:24.805Z,0.70
2023-03-26T03:46:54.092Z,0.80
2023-03-26T03:49:22.430Z,0.60
2023-03-26T03:51:49.186Z,0.70
2023-03-26T03:54:25.148Z,0.80
2023-03-26T03:57:24.211Z,0.50
2023-03-26T04:00:00.683Z,0.60
2023-03-26T04:02:43.124Z,0.60
2023-03-26T04:05:11.977Z,0.77
2023-03-26T04:07:45.236Z,0.60
2023-03-26T04:10:43.760Z,0.60
2023-03-26T04:13:17.154Z,0.57
2023-03-26T04:16:10.462Z,0.98
2023-03-26T04:18:38.295Z,1.35
2023-03-26T04:21:12.795Z,0.80
2023-03-26T04:23:40.012Z,0.90
2023-03-26T04:26:19.822Z,0.40
2023-03-26T04:29:11.917Z,0.98
2023-03-26T04:31:38.860Z,0.75
2023-03-26T04:34:13.584Z,0.60
2023-03-26T04:36:54.881Z,0.60
2023-03-26T04:39:29.436Z,0.88
2023-03-26T04:42:15.363Z,1.00
2023-03-26T04:44:59.693Z,0.52
2023-03-26T04:47:29.030Z,0.70
2023-03-26T04:49:55.887Z,0.32
2023-03-26T04:52:22.886Z,0.60
2023-03-26T04:55:19.604Z,0.60
2023-03-26T04:57:55.627Z,0.70
2023-03-26T05:00:43.229Z,0.50
2023-03-26T05:03:11.671Z,0.60
2023-03-26T05:05:40.044Z,0.55
2023-03-26T05:08:07.783Z,0.65
2023-03-26T05:10:34.456Z,0.65
2023-03-26T05:13:09.882Z,0.40
2023-03-26T05:15:39.624Z,0.50
2023-03-26T05:18:13.441Z,0.50
2023-03-26T05:20:47.561Z,0.35
2023-03-26T05:23:14.478Z,0.50
2023-03-26T05:25:44.244Z,0.60
2023-03-26T05:28:15.584Z,0.60
2023-03-26T05:30:55.007Z,0.50
2023-03-26T05:33:24.546Z,0.70
2023-03-26T05:36:09.325Z,0.80
2023-03-26T05:38:37.143Z,0.57
2023-03-26T05:41:08.360Z,0.57
2023-03-26T05:43:37.479Z,0.70
2023-03-26T05:46:12.132Z,0.85
2023-03-26T05:48:39.274Z,0.60
2023-03-26T05:51:06.830Z,0.60
2023-03-26T05:53:34.278Z,0.70
2023-03-26T05:56:19.332Z,0.85
2023-03-26T05:59:04.922Z,0.50
2023-03-26T06:01:34.717Z,0.50
2023-03-26T06:04:21.394Z,0.70
2023-03-26T06:07:16.866Z,0.75
2023-03-26T06:09:49.661Z,0.70
2023-03-26T06:12:16.834Z,0.73
2023-03-26T06:14:43.968Z,0.55
2023-03-26T06:17:22.464Z,0.70
2023-03-26T06:20:16.107Z,0.80
2023-03-26T06:22:46.492Z,0.98
2023-03-26T06:25:19.701Z,0.70
2023-03-26T06:27:54.682Z,0.50
2023-03-26T06:30:44.590Z,0.80
2023-03-26T06:33:31.226Z,0.43
2023-03-26T06:36:00.400Z,0.70
2023-03-26T06:38:27.357Z,0.82
2023-03-26T06:40:54.507Z,0.90
2023-03-26T06:43:27.240Z,0.80
2023-03-26T06:45:53.892Z,0.60
2023-03-26T06:48:46.679Z,0.70
2023-03-26T06:51:13.502Z,0.52
2023-03-26T06:54:00.490Z,0.52
2023-03-26T06:56:43.424Z,0.65
2023-03-26T06:59:28.631Z,0.80
2023-03-26T07:02:14.122Z,0.57
2023-03-26T07:04:59.557Z,0.60
2023-03-26T07:07:46.676Z,0.70
2023-03-26T07:10:19.975Z,0.60
2023-03-26T07:13:04.281Z,0.70
2023-03-26T07:15:51.461Z,0.98
2023-03-26T07:18:43.781Z,0.75
2023-03-26T07:21:17.227Z,0.70
2023-03-26T07:23:44.293Z,0.60
2023-03-26T07:27:18.894Z,1.10
2023-03-26T07:29:52.279Z,0.85
2023-03-26T07:33:00.259Z,0.80
2023-03-26T07:35:52.007Z,0.95
2023-03-26T07:38:53.888Z,0.98
2023-03-26T07:42:09.799Z,0.90
2023-03-26T07:45:33.934Z,0.70
2023-03-26T07:48:29.649Z,1.58
2023-03-26T07:51:00.237Z,0.90
2023-03-26T07:56:36.397Z,1.25
2023-03-26T07:59:39.038Z,0.80
2023-03-26T08:02:30.561Z,0.68
2023-03-26T08:05:21.555Z,0.88
2023-03-26T08:08:20.749Z,0.68
2023-03-26T08:11:28.244Z,0.60
2023-03-26T08:14:44.283Z,0.70
2023-03-26T08:17:21.034Z,0.65
2023-03-26T08:19:51.523Z,0.80
2023-03-26T08:22:27.378Z,0.60
2023-03-26T08:25:11.957Z,0.50
2023-03-26T08:27:43.365Z,0.68
2023-03-26T08:30:20.446Z,0.60
2023-03-26T08:32:56.558Z,0.80
2023-03-26T08:35:25.387Z,0.60
2023-03-26T08:37:52.198Z,0.70
2023-03-26T08:40:39.128Z,0.57
2023-03-26T08:43:19.684Z,0.65
2023-03-26T08:46:20.377Z,0.50
2023-03-26T08:49:09.789Z,0.70
2023-03-26T08:51:39.332Z,0.73
2023-03-26T08:54:08.757Z,0.82
2023-03-26T08:56:47.643Z,0.50
2023-03-26T09:00:02.858Z,0.80
2023-03-26T09:03:07.343Z,0.90
2023-03-26T09:05:55.675Z,0.60
2023-03-26T09:08:53.899Z,0.60
2023-03-26T09:11:30.275Z,0.50
2023-03-26T09:14:24.698Z,1.02
2023-03-26T09:17:13.297Z,0.90
2023-03-26T09:20:24.675Z,1.15
2023-03-26T09:23:09.883Z,0.70
2023-03-26T09:26:11.732Z,0.90
2023-03-26T09:29:01.356Z,1.10
2023-03-26T09:31:58.002Z,1.33
2023-03-26T09:34:54.967Z,1.23
2023-03-26T09:37:33.777Z,2.08
2023-03-26T09:40:05.090Z,1.83
2023-03-26T09:42:34.658Z,2.40
2023-03-26T09:45:16.121Z,2.70
2023-03-26T09:47:48.879Z,1.50
2023-03-26T09:50:42.554Z,1.20
2023-03-26T09:53:21.136Z,1.73
2023-03-26T09:56:00.268Z,1.77
2023-03-26T09:58:41.402Z,2.55
2023-03-26T10:01:26.352Z,2.78
2023-03-26T10:04:12.043Z,2.07
2023-03-26T10:07:12.834Z,2.50
2023-03-26T10:09:56.062Z,3.65
2023-03-26T10:12:51.030Z,2.15
2023-03-26T10:15:17.956Z,1.50
2023-03-26T10:18:29.197Z,1.45
2023-03-26T10:21:24.904Z,3.65
2023-03-26T10:24:07.670Z,2.72
2023-03-26T10:27:10.772Z,2.47
2023-03-26T10:29:57.747Z,2.10
2023-03-26T10:32:33.673Z,2.90
2023-03-26T10:35:06.240Z,2.65
2023-03-26T10:38:00.911Z,3.08
2023-03-26T10:40:43.802Z,3.10
2023-03-26T10:43:49.793Z,3.60
2023-03-26T10:46:38.212Z,3.50
2023-03-26T10:49:41.031Z,2.10
2023-03-26T10:52:13.077Z,3.17
2023-03-26T10:54:48.602Z,2.90
2023-03-26T11:00:20.661Z,2.38
2023-03-26T11:03:08.200Z,2.72
2023-03-26T11:05:38.103Z,2.00
2023-03-26T11:08:21.196Z,2.60
2023-03-26T11:11:11.114Z,2.83
2023-03-26T11:13:45.563Z,2.33
2023-03-26T11:16:33.889Z,2.08
2023-03-26T11:19:13.470Z,2.05
2023-03-26T11:21:56.732Z,2.10
2023-03-26T11:24:55.897Z,2.00
2023-03-26T11:27:26.570Z,1.92
2023-03-26T11:30:02.520Z,2.03
2023-03-26T11:32:51.597Z,1.90
2023-03-26T11:35:40.923Z,1.30
2023-03-26T11:38:32.874Z,2.00
2023-03-26T11:41:03.654Z,1.33
2023-03-26T11:43:52.990Z,2.30
2023-03-26T11:46:22.954Z,2.38
2023-03-26T11:48:58.224Z,1.98
2023-03-26T11:51:31.913Z,2.30
2023-03-26T11:54:00.063Z,2.80
2023-03-26T11:56:32.110Z,2.78
2023-03-26T11:59:05.562Z,2.90
2023-03-26T12:01:50.680Z,3.53
2023-03-26T12:04:35.317Z,3.05
2023-03-26T12:07:18.145Z,2.55
2023-03-26T12:09:57.928Z,3.00
2023-03-26T12:12:47.543Z,3.05
2023-03-26T12:15:16.597Z,3.25
2023-03-26T12:17:43.445Z,3.05
2023-03-26T12:20:25.258Z,2.60
2023-03-26T12:22:53.844Z,3.30
2023-03-26T12:25:25.916Z,3.50
2023-03-26T12:28:05.959Z,4.03
2023-03-26T12:30:37.221Z,6.80
2023-03-26T12:33:29.387Z,5.20
2023-03-26T12:36:00.600Z,6.38
2023-03-26T12:38:34.653Z,5.25
2023-03-26T12:42:25.837Z,4.50
2023-03-26T12:44:53.354Z,11.50
2023-03-26T12:48:00.105Z,10.00
2023-03-26T12:50:16.609Z,4.05
2023-03-26T12:52:59.176Z,2.45
2023-03-26T12:55:31.808Z,2.97
2023-03-26T12:58:20.150Z,3.88
2023-03-26T13:01:11.199Z,3.65
2023-03-26T13:04:13.529Z,3.47
2023-03-26T13:07:00.710Z,3.78
2023-03-26T13:09:32.933Z,3.17
2023-03-26T13:12:18.253Z,2.90
2023-03-26T13:14:50.700Z,2.67
2023-03-26T13:17:26.936Z,2.67
2023-03-26T13:20:12.587Z,3.05
2023-03-26T13:22:58.474Z,3.10
2023-03-26T13:25:47.850Z,2.67
2023-03-26T13:28:17.333Z,2.67
2023-03-26T13:30:53.554Z,2.35
2023-03-26T13:33:41.020Z,2.08
2023-03-26T13:36:24.313Z,2.03
2023-03-26T13:39:10.755Z,2.25
2023-03-26T13:42:07.719Z,1.80
2023-03-26T13:45:04.979Z,2.25
2023-03-26T13:47:41.242Z,1.95
2023-03-26T13:50:15.757Z,2.78
2023-03-26T13:52:53.061Z,2.80
2023-03-26T13:55:41.061Z,2.70
2023-03-26T13:58:11.072Z,3.42
2023-03-26T14:00:58.235Z,2.60
2023-03-26T14:03:37.419Z,2.00
2023-03-26T14:06:10.782Z,2.30
2023-03-26T14:08:44.811Z,2.53
2023-03-26T14:11:18.243Z,5.72
2023-03-26T14:14:10.258Z,3.22
2023-03-26T14:16:45.793Z,3.50
2023-03-26T14:21:56.371Z,3.50
2023-03-26T14:25:01.780Z,3.80
2023-03-26T14:27:46.358Z,2.97
2023-03-26T14:30:25.563Z,2.80
2023-03-26T14:33:04.404Z,1.80
2023-03-26T14:35:42.967Z,4.13
2023-03-26T14:38:34.926Z,2.65
2023-03-26T14:41:38.953Z,1.83
2023-03-26T14:44:48.202Z,2.00
2023-03-26T14:47:21.578Z,2.35
2023-03-26T14:50:04.152Z,5.93
2023-03-26T14:52:51.568Z,2.10
2023-03-26T14:55:30.054Z,1.90
2023-03-26T14:58:27.882Z,2.10
2023-03-26T15:01:06.780Z,2.00
2023-03-26T15:03:55.140Z,1.60
2023-03-26T15:06:42.163Z,1.80
2023-03-26T15:09:30.133Z,1.80
2023-03-26T15:12:30.617Z,1.60
2023-03-26T15:15:26.394Z,2.03
2023-03-26T15:18:14.702Z,2.25
2023-03-26T15:21:04.335Z,1.60
2023-03-26T15:24:09.783Z,1.85
2023-03-26T15:26:57.108Z,1.98
2023-03-26T15:29:38.513Z,1.73
2023-03-26T15:32:30.198Z,2.40
2023-03-26T15:35:30.648Z,2.15
2023-03-26T15:38:34.660Z,4.70
2023-03-26T15:41:46.993Z,3.47
2023-03-26T15:44:40.881Z,2.92
2023-03-26T15:47:28.322Z,7.95
2023-03-26T15:50:36.549Z,2.60
2023-03-26T15:53:33.660Z,1.60
2023-03-26T15:56:07.428Z,1.42
2023-03-26T15:58:51.970Z,1.70
2023-03-26T16:01:34.013Z,2.33
2023-03-26T16:04:34.512Z,1.42
2023-03-26T16:07:21.907Z,1.55
2023-03-26T16:10:00.739Z,1.60
2023-03-26T16:12:34.483Z,1.88
2023-03-26T16:15:21.082Z,1.95
2023-03-26T16:18:11.741Z,1.58
2023-03-26T16:20:53.971Z,1.92
2023-03-26T16:23:53.819Z,1.40
2023-03-26T16:26:52.433Z,1.63
2023-03-26T16:29:22.368Z,2.95
2023-03-26T16:32:07.498Z,1.98
2023-03-26T16:34:48.235Z,1.52
2023-03-26T16:37:36.715Z,1.98
2023-03-26T16:40:35.956Z,1.80
2023-03-26T16:43:17.816Z,1.75
2023-03-26T16:45:44.515Z,2.65
2023-03-26T16:48:17.322Z,2.63
2023-03-26T16:50:52.193Z,2.15
2023-03-26T16:53:46.005Z,2.67
2023-03-26T16:56:23.973Z,3.15
2023-03-26T16:58:58.656Z,2.47
2023-03-26T17:01:46.527Z,2.10
2023-03-26T17:04:24.588Z,2.03
2023-03-26T17:07:03.496Z,2.88
2023-03-26T17:09:51.652Z,2.30
2023-03-26T17:12:33.675Z,2.50
2023-03-26T17:15:06.509Z,3.08
2023-03-26T17:18:02.322Z,3.00
2023-03-26T17:20:44.013Z,4.22
2023-03-26T17:23:51.754Z,3.17
2023-03-26T17:26:39.638Z,3.00
2023-03-26T17:29:44.919Z,2.30
2023-03-26T17:32:15.021Z,3.25
2023-03-26T17:34:54.215Z,3.90
2023-03-26T17:37:23.556Z,2.60
2023-03-26T17:39:50.397Z,2.85
2023-03-26T17:42:35.540Z,3.50
2023-03-26T17:45:15.509Z,2.40
2023-03-26T17:47:58.936Z,4.45
2023-03-26T17:50:48.963Z,3.92
2023-03-26T17:53:28.305Z,2.72
2023-03-26T17:55:58.360Z,4.00
2023-03-26T17:58:31.801Z,3.90
2023-03-26T18:01:22.444Z,3.70
2023-03-26T18:03:54.401Z,3.40
2023-03-26T18:06:51.627Z,2.95
2023-03-26T18:10:02.045Z,3.00
2023-03-26T18:12:34.486Z,4.28
2023-03-26T18:15:29.009Z,5.78
2023-03-26T18:18:19.729Z,2.90
2023-03-26T18:20:49.402Z,2.67
2023-03-26T18:23:37.382Z,2.60
2023-03-26T18:26:14.132Z,2.28
2023-03-26T18:28:44.069Z,2.50
2023-03-26T18:31:26.175Z,2.90
2023-03-26T18:34:03.136Z,3.33
2023-03-26T18:36:31.028Z,2.45
2023-03-26T18:39:03.253Z,3.20
2023-03-26T18:41:41.737Z,4.00
2023-03-26T18:44:15.132Z,4.85
2023-03-26T18:46:42.749Z,4.25
2023-03-26T18:49:13.383Z,4.90
2023-03-26T18:51:54.055Z,5.95
2023-03-26T18:54:23.610Z,7.13
2023-03-26T18:56:52.140Z,6.70
2023-03-26T18:59:35.214Z,6.10
2023-03-26T19:02:16.325Z,6.63
2023-03-26T19:04:46.268Z,6.80
2023-03-26T19:07:24.884Z,6.65
2023-03-26T19:09:56.355Z,9.00
2023-03-26T19:12:28.680Z,5.25
2023-03-26T19:15:09.528Z,4.68
2023-03-26T19:17:49.416Z,4.20
2023-03-26T19:20:24.167Z,3.88
2023-03-26T19:22:51.002Z,4.30
2023-03-26T19:25:43.140Z,5.25
2023-03-26T19:28:25.712Z,5.45
2023-03-26T19:30:56.337Z,4.40
2023-03-26T19:33:25.604Z,3.90
2023-03-26T19:36:02.085Z,3.47
2023-03-26T19:38:38.004Z,5.18
2023-03-26T19:41:05.802Z,4.13
2023-03-26T19:43:32.543Z,4.53
2023-03-26T19:46:01.267Z,2.83
2023-03-26T19:48:45.629Z,3.20
2023-03-26T19:51:20.230Z,3.83
2023-03-26T19:53:55.804Z,4.95
2023-03-26T19:56:23.081Z,5.72
2023-03-26T19:58:52.949Z,5.47
2023-03-26T20:01:26.993Z,5.53
2023-03-26T20:04:00.703Z,6.53
2023-03-26T20:06:42.324Z,5.00
2023-03-26T20:09:12.469Z,4.60
2023-03-26T20:11:39.910Z,4.22
2023-03-26T20:14:15.913Z,4.85
2023-03-26T20:16:45.225Z,4.78
2023-03-26T20:19:14.296Z,4.50
2023-03-26T20:21:41.647Z,4.88
2023-03-26T20:24:16.917Z,5.82
2023-03-26T20:26:45.157Z,4.97
2023-03-26T20:29:13.018Z,5.00
2023-03-26T20:31:41.635Z,3.47
2023-03-26T20:34:20.669Z,4.43
2023-03-26T20:36:48.086Z,5.13
2023-03-26T20:39:14.890Z,5.50
2023-03-26T20:41:45.578Z,4.82
2023-03-26T20:44:15.718Z,5.32
2023-03-26T20:46:43.929Z,5.43
2023-03-26T20:49:11.712Z,4.53
2023-03-26T20:51:41.894Z,3.63
2023-03-26T20:54:30.341Z,3.60
2023-03-26T20:56:58.102Z,2.58
2023-03-26T20:59:27.590Z,1.90
2023-03-26T21:01:59.413Z,1.65
2023-03-26T21:04:27.053Z,2.28
2023-03-26T21:07:00.208Z,2.03
2023-03-26T21:09:34.076Z,1.50
2023-03-26T21:12:09.698Z,1.48
2023-03-26T21:17:20.651Z,1.38
2023-03-26T21:19:49.252Z,1.10
2023-03-26T21:23:13.170Z,1.20
2023-03-26T21:25:53.388Z,1.40
2023-03-26T21:28:48.772Z,2.10
2023-03-26T21:31:21.974Z,1.42
2023-03-26T21:33:49.989Z,0.98
2023-03-26T21:36:19.601Z,1.00
2023-03-26T21:38:47.158Z,1.10
2023-03-26T21:41:41.618Z,1.30
2023-03-26T21:44:08.720Z,1.10
2023-03-26T21:46:35.847Z,1.52
2023-03-26T21:49:02.832Z,1.60
2023-03-26T21:51:29.985Z,1.02
2023-03-26T21:53:56.968Z,1.00
2023-03-26T21:56:56.023Z,1.08
2023-03-26T21:59:36.400Z,1.75
2023-03-26T22:02:23.089Z,1.60
2023-03-26T22:04:57.162Z,2.30
2023-03-26T22:07:30.659Z,2.40
2023-03-26T22:09:57.610Z,2.33
2023-03-26T22:12:25.581Z,1.58
2023-03-26T22:14:53.459Z,1.70
2023-03-26T22:17:20.092Z,1.40
2023-03-26T22:19:46.860Z,1.13
2023-03-26T22:22:14.966Z,1.50
2023-03-26T22:24:41.681Z,1.05
2023-03-26T22:27:08.369Z,1.08
2023-03-26T22:29:35.233Z,0.85
2023-03-26T22:32:03.544Z,0.90
2023-03-26T22:34:31.658Z,1.02
2023-03-26T22:36:58.334Z,0.70
2023-03-26T22:39:25.239Z,0.80
2023-03-26T22:41:51.840Z,1.00
2023-03-26T22:44:20.535Z,0.88
2023-03-26T22:46:50.610Z,1.00
2023-03-26T22:49:17.858Z,0.90
2023-03-26T22:51:44.549Z,0.90
2023-03-26T22:54:11.527Z,1.35
2023-03-26T22:56:38.195Z,1.40
2023-03-26T22:59:05.125Z,1.60
2023-03-26T23:01:31.862Z,1.02
2023-03-26T23:03:58.767Z,0.95
2023-03-26T23:06:25.667Z,1.05
2023-03-26T23:08:52.435Z,1.20
2023-03-26T23:11:21.952Z,1.23
2023-03-26T23:13:49.317Z,1.63
2023-03-26T23:16:17.108Z,1.52
2023-03-26T23:18:44.192Z,1.08
2023-03-26T23:21:16.706Z,0.90
2023-03-26T23:23:43.461Z,1.00
2023-03-26T23:26:10.842Z,1.10
2023-03-26T23:28:38.318Z,1.08
2023-03-26T23:31:07.701Z,0.85
2023-03-26T23:33:37.119Z,0.70
2023-03-26T23:36:09.192Z,0.85
2023-03-26T23:38:43.442Z,1.30
2023-03-26T23:41:15.683Z,1.40
2023-03-26T23:43:54.241Z,1.52
2023-03-26T23:46:31.027Z,1.33
2023-03-26T23:49:03.467Z,1.58
2023-03-26T23:51:31.101Z,2.10
2023-03-26T23:53:58.462Z,2.20
2023-03-26T23:56:27.754Z,1.75
2023-03-26T23:58:55.229Z,1.92
